sensor_id;sensor_type;location;lat;lon;timestamp;pressure;altitude;pressure_sealevel;temperature;humidity
18137;BME280;9194;42.632;23.298;2022-11-15T00:01:59;93131.19;;;3.13;100.00
18137;BME280;9194;42.632;23.298;2022-11-15T00:07:19;93130.84;;;3.16;100.00
18137;BME280;9194;42.632;23.298;2022-11-15T00:12:38;93119.66;;;3.01;100.00
18137;BME280;9194;42.632;23.298;2022-11-15T00:17:59;93128.00;;;3.03;100.00
18137;BME280;9194;42.632;23.298;2022-11-15T00:23:18;93124.94;;;2.99;100.00
18137;BME280;9194;42.632;23.298;2022-11-15T00:28:38;93115.50;;;2.83;100.00
18137;BME280;9194;42.632;23.298;2022-11-15T00:33:59;93111.47;;;2.89;100.00
18137;BME280;9194;42.632;23.298;2022-11-15T00:39:18;93109.84;;;2.88;100.00
18137;BME280;9194;42.632;23.298;2022-11-15T00:44:38;93102.50;;;2.85;100.00
18137;BME280;9194;42.632;23.298;2022-11-15T00:49:58;93102.50;;;2.85;100.00
18137;BME280;9194;42.632;23.298;2022-11-15T00:55:18;93102.50;;;2.85;100.00
18137;BME280;9194;42.632;23.298;2022-11-15T01:00:38;93093.31;;;2.82;100.00
18137;BME280;9194;42.632;23.298;2022-11-15T01:06:01;93088.03;;;2.84;100.00
18137;BME280;9194;42.632;23.298;2022-11-15T01:11:21;93093.66;;;2.79;100.00
18137;BME280;9194;42.632;23.298;2022-11-15T01:16:41;93094.78;;;2.85;100.00
18137;BME280;9194;42.632;23.298;2022-11-15T01:22:01;93095.25;;;2.80;100.00
18137;BME280;9194;42.632;23.298;2022-11-15T01:27:21;93091.09;;;2.79;100.00
18137;BME280;9194;42.632;23.298;2022-11-15T01:32:40;93084.97;;;2.80;100.00
18137;BME280;9194;42.632;23.298;2022-11-15T01:38:00;93083.84;;;2.83;100.00
18137;BME280;9194;42.632;23.298;2022-11-15T01:48:42;93083.69;;;2.84;100.00
18137;BME280;9194;42.632;23.298;2022-11-15T01:54:09;93078.69;;;2.83;100.00
18137;BME280;9194;42.632;23.298;2022-11-15T01:59:31;93078.06;;;2.81;100.00
18137;BME280;9194;42.632;23.298;2022-11-15T02:04:51;93084.66;;;2.83;100.00
18137;BME280;9194;42.632;23.298;2022-11-15T02:10:19;93078.53;;;2.84;100.00
18137;BME280;9194;42.632;23.298;2022-11-15T02:15:58;93079.47;;;2.92;100.00
18137;BME280;9194;42.632;23.298;2022-11-15T02:21:47;93083.03;;;2.82;100.00
18137;BME280;9194;42.632;23.298;2022-11-15T02:27:42;93074.69;;;2.80;100.00
18137;BME280;9194;42.632;23.298;2022-11-15T02:43:59;93062.63;;;2.81;100.00
18137;BME280;9194;42.632;23.298;2022-11-15T02:49:21;93062.97;;;2.78;100.00
18137;BME280;9194;42.632;23.298;2022-11-15T02:54:42;93073.72;;;2.89;100.00
18137;BME280;9194;42.632;23.298;2022-11-15T03:11:10;93073.09;;;2.71;100.00
18137;BME280;9194;42.632;23.298;2022-11-15T03:16:34;93072.78;;;2.66;100.00
18137;BME280;9194;42.632;23.298;2022-11-15T03:21:57;93052.22;;;2.66;100.00
18137;BME280;9194;42.632;23.298;2022-11-15T03:27:23;93058.16;;;2.67;100.00
18137;BME280;9194;42.632;23.298;2022-11-15T03:32:52;93053.50;;;2.62;100.00
18137;BME280;9194;42.632;23.298;2022-11-15T03:38:25;93052.06;;;2.60;100.00
18137;BME280;9194;42.632;23.298;2022-11-15T03:49:49;93043.22;;;2.62;100.00
18137;BME280;9194;42.632;23.298;2022-11-15T03:55:14;93028.94;;;2.68;100.00
18137;BME280;9194;42.632;23.298;2022-11-15T04:00:35;93032.94;;;2.70;100.00
18137;BME280;9194;42.632;23.298;2022-11-15T04:05:54;93022.19;;;2.67;100.00
18137;BME280;9194;42.632;23.298;2022-11-15T04:11:14;93028.13;;;2.67;100.00
18137;BME280;9194;42.632;23.298;2022-11-15T04:16:34;93022.66;;;2.70;100.00
18137;BME280;9194;42.632;23.298;2022-11-15T04:21:54;93009.00;;;2.70;100.00
18137;BME280;9194;42.632;23.298;2022-11-15T04:27:32;93012.06;;;2.73;100.00
18137;BME280;9194;42.632;23.298;2022-11-15T04:32:52;93004.00;;;2.76;100.00
18137;BME280;9194;42.632;23.298;2022-11-15T04:38:12;93013.63;;;2.74;100.00
18137;BME280;9194;42.632;23.298;2022-11-15T04:43:31;93007.88;;;2.72;100.00
18137;BME280;9194;42.632;23.298;2022-11-15T04:48:52;93015.59;;;2.72;100.00
18137;BME280;9194;42.632;23.298;2022-11-15T04:54:12;93021.88;;;2.62;100.00
18137;BME280;9194;42.632;23.298;2022-11-15T04:59:32;93018.66;;;2.60;100.00
18137;BME280;9194;42.632;23.298;2022-11-15T05:04:51;93015.47;;;2.41;100.00
18137;BME280;9194;42.632;23.298;2022-11-15T05:10:11;93007.00;;;2.25;100.00
18137;BME280;9194;42.632;23.298;2022-11-15T05:15:31;93018.38;;;2.22;100.00
18137;BME280;9194;42.632;23.298;2022-11-15T05:20:51;93016.94;;;2.20;100.00
18137;BME280;9194;42.632;23.298;2022-11-15T05:26:11;93012.78;;;2.27;100.00
18137;BME280;9194;42.632;23.298;2022-11-15T05:31:30;93012.59;;;2.28;100.00
18137;BME280;9194;42.632;23.298;2022-11-15T05:36:50;93017.09;;;2.34;100.00
18137;BME280;9194;42.632;23.298;2022-11-15T05:42:15;93007.28;;;2.46;100.00
18137;BME280;9194;42.632;23.298;2022-11-15T05:47:35;93013.38;;;2.45;100.00
18137;BME280;9194;42.632;23.298;2022-11-15T05:52:57;93016.13;;;2.43;100.00
18137;BME280;9194;42.632;23.298;2022-11-15T05:58:19;93014.97;;;2.46;100.00
18137;BME280;9194;42.632;23.298;2022-11-15T06:03:40;93022.38;;;2.41;100.00
18137;BME280;9194;42.632;23.298;2022-11-15T06:08:59;93022.03;;;2.60;100.00
18137;BME280;9194;42.632;23.298;2022-11-15T06:14:19;93022.59;;;2.95;100.00
18137;BME280;9194;42.632;23.298;2022-11-15T06:19:39;93025.38;;;3.24;100.00
18137;BME280;9194;42.632;23.298;2022-11-15T06:24:59;93025.09;;;3.50;100.00
18137;BME280;9194;42.632;23.298;2022-11-15T06:30:19;93012.09;;;3.74;100.00
18137;BME280;9194;42.632;23.298;2022-11-15T06:35:39;93007.41;;;4.00;100.00
18137;BME280;9194;42.632;23.298;2022-11-15T06:41:09;92997.25;;;4.22;100.00
18137;BME280;9194;42.632;23.298;2022-11-15T06:46:29;93002.84;;;4.25;100.00
18137;BME280;9194;42.632;23.298;2022-11-15T06:51:49;93002.91;;;4.40;100.00
18137;BME280;9194;42.632;23.298;2022-11-15T06:57:08;92997.28;;;4.59;100.00
18137;BME280;9194;42.632;23.298;2022-11-15T07:02:28;93001.63;;;4.59;100.00
18137;BME280;9194;42.632;23.298;2022-11-15T07:07:52;93002.06;;;4.62;100.00
18137;BME280;9194;42.632;23.298;2022-11-15T07:13:13;92987.47;;;4.84;100.00
18137;BME280;9194;42.632;23.298;2022-11-15T07:18:37;92979.94;;;4.97;100.00
18137;BME280;9194;42.632;23.298;2022-11-15T07:23:57;92989.00;;;5.22;100.00
18137;BME280;9194;42.632;23.298;2022-11-15T07:29:17;92982.53;;;5.48;100.00
18137;BME280;9194;42.632;23.298;2022-11-15T07:34:37;92992.91;;;5.33;100.00
18137;BME280;9194;42.632;23.298;2022-11-15T07:39:57;92993.66;;;5.63;100.00
18137;BME280;9194;42.632;23.298;2022-11-15T07:45:17;92984.44;;;5.75;100.00
18137;BME280;9194;42.632;23.298;2022-11-15T07:50:40;92982.69;;;5.97;100.00
18137;BME280;9194;42.632;23.298;2022-11-15T07:56:00;92979.69;;;6.14;100.00
18137;BME280;9194;42.632;23.298;2022-11-15T08:01:20;92986.75;;;6.06;100.00
18137;BME280;9194;42.632;23.298;2022-11-15T08:06:40;92979.19;;;6.04;100.00
18137;BME280;9194;42.632;23.298;2022-11-15T08:11:59;92979.53;;;6.44;100.00
18137;BME280;9194;42.632;23.298;2022-11-15T08:17:20;92979.25;;;6.60;100.00
18137;BME280;9194;42.632;23.298;2022-11-15T08:22:39;92973.22;;;6.81;100.00
18137;BME280;9194;42.632;23.298;2022-11-15T08:28:05;92971.84;;;6.85;100.00
18137;BME280;9194;42.632;23.298;2022-11-15T08:33:25;92967.38;;;6.72;100.00
18137;BME280;9194;42.632;23.298;2022-11-15T08:38:45;92968.53;;;6.63;100.00
18137;BME280;9194;42.632;23.298;2022-11-15T08:44:05;92966.19;;;6.68;100.00
18137;BME280;9194;42.632;23.298;2022-11-15T08:49:24;92952.31;;;6.82;100.00
18137;BME280;9194;42.632;23.298;2022-11-15T08:54:44;92945.97;;;7.19;100.00
18137;BME280;9194;42.632;23.298;2022-11-15T09:00:05;92933.56;;;7.62;100.00
18137;BME280;9194;42.632;23.298;2022-11-15T09:05:26;92932.31;;;7.38;100.00
18137;BME280;9194;42.632;23.298;2022-11-15T09:10:46;92924.94;;;7.42;100.00
18137;BME280;9194;42.632;23.298;2022-11-15T09:16:06;92920.41;;;7.70;100.00
18137;BME280;9194;42.632;23.298;2022-11-15T09:21:26;92911.88;;;7.90;100.00
18137;BME280;9194;42.632;23.298;2022-11-15T09:26:46;92902.47;;;7.75;100.00
18137;BME280;9194;42.632;23.298;2022-11-15T09:32:09;92898.31;;;7.81;100.00
18137;BME280;9194;42.632;23.298;2022-11-15T09:37:31;92892.13;;;7.82;100.00
18137;BME280;9194;42.632;23.298;2022-11-15T09:48:46;92886.78;;;7.97;100.00
18137;BME280;9194;42.632;23.298;2022-11-15T09:54:10;92878.41;;;7.95;100.00
18137;BME280;9194;42.632;23.298;2022-11-15T10:04:38;92869.44;;;8.43;100.00
18137;BME280;9194;42.632;23.298;2022-11-15T10:14:50;92853.06;;;7.83;100.00
18137;BME280;9194;42.632;23.298;2022-11-15T10:25:24;92847.50;;;7.80;100.00
18137;BME280;9194;42.632;23.298;2022-11-15T10:30:38;92829.16;;;7.95;100.00
18137;BME280;9194;42.632;23.298;2022-11-15T10:35:40;92827.75;;;8.12;100.00
18137;BME280;9194;42.632;23.298;2022-11-15T10:40:42;92815.38;;;8.20;100.00
18137;BME280;9194;42.632;23.298;2022-11-15T10:45:48;92812.00;;;8.20;100.00
18137;BME280;9194;42.632;23.298;2022-11-15T10:50:52;92803.59;;;8.18;100.00
18137;BME280;9194;42.632;23.298;2022-11-15T10:55:57;92803.22;;;8.01;100.00
18137;BME280;9194;42.632;23.298;2022-11-15T11:01:18;92789.03;;;8.17;100.00
18137;BME280;9194;42.632;23.298;2022-11-15T11:06:21;92779.66;;;8.29;100.00
18137;BME280;9194;42.632;23.298;2022-11-15T11:11:22;92776.88;;;8.31;100.00
18137;BME280;9194;42.632;23.298;2022-11-15T11:21:44;92769.66;;;8.46;100.00
18137;BME280;9194;42.632;23.298;2022-11-15T11:27:09;92758.63;;;8.57;100.00
18137;BME280;9194;42.632;23.298;2022-11-15T11:48:13;92724.31;;;8.61;100.00
18137;BME280;9194;42.632;23.298;2022-11-15T11:53:28;92716.78;;;8.47;100.00
18137;BME280;9194;42.632;23.298;2022-11-15T11:58:38;92702.59;;;8.49;100.00
18137;BME280;9194;42.632;23.298;2022-11-15T12:03:44;92695.94;;;8.67;100.00
18137;BME280;9194;42.632;23.298;2022-11-15T12:14:36;92688.44;;;8.90;100.00
18137;BME280;9194;42.632;23.298;2022-11-15T12:19:40;92686.56;;;8.97;100.00
18137;BME280;9194;42.632;23.298;2022-11-15T12:25:05;92674.38;;;8.97;100.00
18137;BME280;9194;42.632;23.298;2022-11-15T12:30:13;92664.59;;;8.99;100.00
18137;BME280;9194;42.632;23.298;2022-11-15T12:35:41;92667.75;;;9.08;100.00
18137;BME280;9194;42.632;23.298;2022-11-15T12:41:14;92654.84;;;8.95;100.00
18137;BME280;9194;42.632;23.298;2022-11-15T12:56:43;92640.78;;;8.40;100.00
18137;BME280;9194;42.632;23.298;2022-11-15T13:01:52;92646.78;;;8.27;100.00
18137;BME280;9194;42.632;23.298;2022-11-15T13:07:02;92639.09;;;8.14;100.00
18137;BME280;9194;42.632;23.298;2022-11-15T13:12:47;92641.91;;;7.99;100.00
18137;BME280;9194;42.632;23.298;2022-11-15T13:17:55;92637.78;;;7.92;100.00
18137;BME280;9194;42.632;23.298;2022-11-15T13:23:13;92630.22;;;7.83;100.00
18137;BME280;9194;42.632;23.298;2022-11-15T13:33:24;92610.50;;;7.69;100.00
18137;BME280;9194;42.632;23.298;2022-11-15T13:43:32;92617.72;;;7.54;100.00
18137;BME280;9194;42.632;23.298;2022-11-15T13:48:35;92618.97;;;7.45;100.00
18137;BME280;9194;42.632;23.298;2022-11-15T13:53:40;92618.34;;;7.43;100.00
18137;BME280;9194;42.632;23.298;2022-11-15T13:58:42;92618.19;;;7.31;100.00
18137;BME280;9194;42.632;23.298;2022-11-15T14:04:00;92604.06;;;7.27;100.00
18137;BME280;9194;42.632;23.298;2022-11-15T14:14:14;92597.88;;;7.09;100.00
18137;BME280;9194;42.632;23.298;2022-11-15T14:24:21;92605.66;;;6.95;100.00
18137;BME280;9194;42.632;23.298;2022-11-15T14:29:29;92605.25;;;6.92;100.00
18137;BME280;9194;42.632;23.298;2022-11-15T14:34:34;92601.50;;;6.81;100.00
18137;BME280;9194;42.632;23.298;2022-11-15T14:39:35;92599.09;;;6.73;100.00
18137;BME280;9194;42.632;23.298;2022-11-15T14:44:36;92605.66;;;6.63;100.00
18137;BME280;9194;42.632;23.298;2022-11-15T14:49:38;92607.59;;;6.47;100.00
18137;BME280;9194;42.632;23.298;2022-11-15T14:54:39;92604.41;;;6.39;100.00
18137;BME280;9194;42.632;23.298;2022-11-15T14:59:41;92608.16;;;6.30;100.00
18137;BME280;9194;42.632;23.298;2022-11-15T15:04:42;92611.88;;;6.07;100.00
18137;BME280;9194;42.632;23.298;2022-11-15T15:09:44;92603.31;;;6.00;100.00
18137;BME280;9194;42.632;23.298;2022-11-15T15:14:47;92595.94;;;5.91;100.00
18137;BME280;9194;42.632;23.298;2022-11-15T15:19:48;92596.84;;;5.83;100.00
18137;BME280;9194;42.632;23.298;2022-11-15T15:24:50;92597.03;;;5.75;100.00
18137;BME280;9194;42.632;23.298;2022-11-15T15:29:52;92595.63;;;5.72;100.00
18137;BME280;9194;42.632;23.298;2022-11-15T15:34:53;92591.66;;;5.70;100.00
18137;BME280;9194;42.632;23.298;2022-11-15T15:39:56;92590.31;;;5.81;100.00
18137;BME280;9194;42.632;23.298;2022-11-15T15:44:57;92585.22;;;5.94;100.00
18137;BME280;9194;42.632;23.298;2022-11-15T15:49:58;92591.63;;;6.11;100.00
18137;BME280;9194;42.632;23.298;2022-11-15T15:55:00;92582.09;;;6.18;100.00
18137;BME280;9194;42.632;23.298;2022-11-15T16:00:03;92570.97;;;6.24;100.00
18137;BME280;9194;42.632;23.298;2022-11-15T16:05:13;92570.94;;;6.17;100.00
18137;BME280;9194;42.632;23.298;2022-11-15T16:10:29;92568.97;;;6.19;100.00
18137;BME280;9194;42.632;23.298;2022-11-15T16:15:31;92581.28;;;6.17;100.00
18137;BME280;9194;42.632;23.298;2022-11-15T16:20:40;92578.75;;;6.31;100.00
18137;BME280;9194;42.632;23.298;2022-11-15T16:25:49;92586.91;;;6.34;100.00
18137;BME280;9194;42.632;23.298;2022-11-15T16:31:07;92583.50;;;6.27;100.00
18137;BME280;9194;42.632;23.298;2022-11-15T16:36:25;92585.09;;;6.22;100.00
18137;BME280;9194;42.632;23.298;2022-11-15T16:41:27;92589.44;;;6.14;100.00
18137;BME280;9194;42.632;23.298;2022-11-15T16:46:28;92582.88;;;6.05;100.00
18137;BME280;9194;42.632;23.298;2022-11-15T16:51:30;92576.09;;;5.98;100.00
18137;BME280;9194;42.632;23.298;2022-11-15T16:56:31;92580.81;;;5.94;100.00
18137;BME280;9194;42.632;23.298;2022-11-15T17:01:34;92577.97;;;5.83;100.00
18137;BME280;9194;42.632;23.298;2022-11-15T17:06:42;92558.88;;;5.77;100.00
18137;BME280;9194;42.632;23.298;2022-11-15T17:11:44;92554.72;;;5.76;100.00
18137;BME280;9194;42.632;23.298;2022-11-15T17:16:46;92544.97;;;5.65;100.00
18137;BME280;9194;42.632;23.298;2022-11-15T17:21:48;92544.38;;;5.69;100.00
18137;BME280;9194;42.632;23.298;2022-11-15T17:26:49;92554.88;;;5.68;100.00
18137;BME280;9194;42.632;23.298;2022-11-15T17:31:51;92553.28;;;5.67;100.00
18137;BME280;9194;42.632;23.298;2022-11-15T17:36:52;92539.59;;;5.66;100.00
18137;BME280;9194;42.632;23.298;2022-11-15T17:41:53;92538.41;;;5.69;100.00
18137;BME280;9194;42.632;23.298;2022-11-15T17:46:54;92545.75;;;5.72;100.00
18137;BME280;9194;42.632;23.298;2022-11-15T17:51:56;92540.97;;;5.62;100.00
18137;BME280;9194;42.632;23.298;2022-11-15T17:56:57;92542.94;;;5.60;100.00
18137;BME280;9194;42.632;23.298;2022-11-15T18:01:58;92537.38;;;5.57;100.00
18137;BME280;9194;42.632;23.298;2022-11-15T18:07:00;92540.53;;;5.52;100.00
18137;BME280;9194;42.632;23.298;2022-11-15T18:12:01;92539.94;;;5.50;100.00
18137;BME280;9194;42.632;23.298;2022-11-15T18:17:02;92534.16;;;5.42;100.00
18137;BME280;9194;42.632;23.298;2022-11-15T18:22:03;92522.59;;;5.37;100.00
18137;BME280;9194;42.632;23.298;2022-11-15T18:27:07;92517.81;;;5.34;100.00
18137;BME280;9194;42.632;23.298;2022-11-15T18:32:08;92518.19;;;5.31;100.00
18137;BME280;9194;42.632;23.298;2022-11-15T18:37:15;92518.97;;;5.25;100.00
18137;BME280;9194;42.632;23.298;2022-11-15T18:42:16;92510.59;;;5.17;100.00
18137;BME280;9194;42.632;23.298;2022-11-15T18:47:17;92521.91;;;5.16;100.00
18137;BME280;9194;42.632;23.298;2022-11-15T18:52:18;92516.94;;;5.14;100.00
18137;BME280;9194;42.632;23.298;2022-11-15T18:57:20;92513.31;;;5.09;100.00
18137;BME280;9194;42.632;23.298;2022-11-15T19:02:22;92507.38;;;5.08;100.00
18137;BME280;9194;42.632;23.298;2022-11-15T19:07:23;92505.72;;;4.94;100.00
18137;BME280;9194;42.632;23.298;2022-11-15T19:12:24;92504.72;;;4.95;100.00
18137;BME280;9194;42.632;23.298;2022-11-15T19:17:26;92511.28;;;4.97;100.00
18137;BME280;9194;42.632;23.298;2022-11-15T19:22:28;92500.00;;;4.99;100.00
18137;BME280;9194;42.632;23.298;2022-11-15T19:27:30;92502.66;;;4.84;100.00
18137;BME280;9194;42.632;23.298;2022-11-15T19:32:31;92492.97;;;4.86;100.00
18137;BME280;9194;42.632;23.298;2022-11-15T19:37:33;92487.44;;;4.89;100.00
18137;BME280;9194;42.632;23.298;2022-11-15T19:42:35;92486.06;;;4.93;100.00
18137;BME280;9194;42.632;23.298;2022-11-15T19:47:46;92479.97;;;5.01;100.00
18137;BME280;9194;42.632;23.298;2022-11-15T19:52:47;92479.97;;;5.07;100.00
18137;BME280;9194;42.632;23.298;2022-11-15T19:57:48;92473.66;;;5.10;100.00
18137;BME280;9194;42.632;23.298;2022-11-15T20:02:50;92474.81;;;5.07;100.00
18137;BME280;9194;42.632;23.298;2022-11-15T20:07:51;92499.84;;;5.13;100.00
18137;BME280;9194;42.632;23.298;2022-11-15T20:12:52;92501.28;;;5.22;100.00
18137;BME280;9194;42.632;23.298;2022-11-15T20:17:54;92513.00;;;5.18;100.00
18137;BME280;9194;42.632;23.298;2022-11-15T20:22:55;92511.41;;;5.17;100.00
18137;BME280;9194;42.632;23.298;2022-11-15T20:27:56;92507.97;;;5.10;100.00
18137;BME280;9194;42.632;23.298;2022-11-15T20:32:58;92498.66;;;5.09;100.00
18137;BME280;9194;42.632;23.298;2022-11-15T20:37:59;92500.22;;;5.04;100.00
18137;BME280;9194;42.632;23.298;2022-11-15T20:43:00;92482.69;;;4.92;100.00
18137;BME280;9194;42.632;23.298;2022-11-15T20:48:02;92474.78;;;4.94;100.00
18137;BME280;9194;42.632;23.298;2022-11-15T20:53:04;92486.03;;;4.86;100.00
18137;BME280;9194;42.632;23.298;2022-11-15T20:58:05;92471.97;;;4.89;100.00
18137;BME280;9194;42.632;23.298;2022-11-15T21:03:06;92463.69;;;5.07;100.00
18137;BME280;9194;42.632;23.298;2022-11-15T21:08:09;92464.78;;;5.25;100.00
18137;BME280;9194;42.632;23.298;2022-11-15T21:13:10;92457.91;;;5.46;100.00
18137;BME280;9194;42.632;23.298;2022-11-15T21:18:12;92450.75;;;5.54;100.00
18137;BME280;9194;42.632;23.298;2022-11-15T21:23:14;92433.13;;;5.58;100.00
18137;BME280;9194;42.632;23.298;2022-11-15T21:28:15;92430.16;;;5.67;100.00
18137;BME280;9194;42.632;23.298;2022-11-15T21:33:17;92429.75;;;5.64;100.00
18137;BME280;9194;42.632;23.298;2022-11-15T21:38:18;92408.50;;;5.62;100.00
18137;BME280;9194;42.632;23.298;2022-11-15T21:43:20;92410.47;;;5.53;100.00
18137;BME280;9194;42.632;23.298;2022-11-15T21:48:21;92408.47;;;5.49;100.00
18137;BME280;9194;42.632;23.298;2022-11-15T21:53:23;92410.59;;;5.32;100.00
18137;BME280;9194;42.632;23.298;2022-11-15T21:58:25;92409.47;;;5.61;100.00
18137;BME280;9194;42.632;23.298;2022-11-15T22:03:27;92403.13;;;5.63;100.00
18137;BME280;9194;42.632;23.298;2022-11-15T22:08:28;92392.78;;;5.57;100.00
18137;BME280;9194;42.632;23.298;2022-11-15T22:13:31;92382.47;;;5.50;100.00
18137;BME280;9194;42.632;23.298;2022-11-15T22:18:32;92387.38;;;5.32;100.00
18137;BME280;9194;42.632;23.298;2022-11-15T22:23:33;92381.84;;;5.35;100.00
18137;BME280;9194;42.632;23.298;2022-11-15T22:28:35;92377.63;;;5.21;100.00
18137;BME280;9194;42.632;23.298;2022-11-15T22:33:36;92374.47;;;5.25;100.00
18137;BME280;9194;42.632;23.298;2022-11-15T22:38:38;92359.19;;;5.30;100.00
18137;BME280;9194;42.632;23.298;2022-11-15T22:43:40;92349.47;;;5.26;100.00
18137;BME280;9194;42.632;23.298;2022-11-15T22:48:41;92344.06;;;5.14;100.00
18137;BME280;9194;42.632;23.298;2022-11-15T22:53:42;92343.06;;;5.09;100.00
18137;BME280;9194;42.632;23.298;2022-11-15T22:58:44;92356.13;;;4.94;100.00
18137;BME280;9194;42.632;23.298;2022-11-15T23:03:45;92350.75;;;4.82;100.00
18137;BME280;9194;42.632;23.298;2022-11-15T23:08:46;92345.59;;;4.82;100.00
18137;BME280;9194;42.632;23.298;2022-11-15T23:13:51;92355.47;;;4.79;100.00
18137;BME280;9194;42.632;23.298;2022-11-15T23:18:57;92347.38;;;4.88;100.00
18137;BME280;9194;42.632;23.298;2022-11-15T23:23:58;92334.72;;;4.93;100.00
18137;BME280;9194;42.632;23.298;2022-11-15T23:28:59;92317.66;;;4.99;100.00
18137;BME280;9194;42.632;23.298;2022-11-15T23:34:01;92306.94;;;5.02;100.00
18137;BME280;9194;42.632;23.298;2022-11-15T23:39:02;92301.00;;;5.15;100.00
18137;BME280;9194;42.632;23.298;2022-11-15T23:44:04;92304.78;;;5.25;100.00
18137;BME280;9194;42.632;23.298;2022-11-15T23:49:05;92312.16;;;5.48;100.00
18137;BME280;9194;42.632;23.298;2022-11-15T23:54:07;92302.44;;;5.70;100.00
18137;BME280;9194;42.632;23.298;2022-11-15T23:59:08;92290.13;;;5.72;100.00
